sensor_id;sensor_type;location;lat;lon;timestamp;P1;durP1;ratioP1;P2;durP2;ratioP2
61487;SDS011;47351;53.326;-6.298;2022-10-16T00:01:21;5.50;;;1.20;;
61487;SDS011;47351;53.326;-6.298;2022-10-16T00:04:00;3.80;;;1.10;;
61487;SDS011;47351;53.326;-6.298;2022-10-16T00:06:32;4.00;;;1.20;;
61487;SDS011;47351;53.326;-6.298;2022-10-16T00:09:04;6.20;;;1.30;;
61487;SDS011;47351;53.326;-6.298;2022-10-16T00:11:37;4.10;;;1.20;;
61487;SDS011;47351;53.326;-6.298;2022-10-16T00:14:18;3.80;;;1.00;;
61487;SDS011;47351;53.326;-6.298;2022-10-16T00:17:01;4.10;;;1.50;;
61487;SDS011;47351;53.326;-6.298;2022-10-16T00:19:35;5.30;;;1.50;;
61487;SDS011;47351;53.326;-6.298;2022-10-16T00:22:09;4.70;;;1.50;;
61487;SDS011;47351;53.326;-6.298;2022-10-16T00:24:46;3.50;;;1.20;;
61487;SDS011;47351;53.326;-6.298;2022-10-16T00:27:17;4.50;;;1.30;;
61487;SDS011;47351;53.326;-6.298;2022-10-16T00:29:51;5.50;;;1.50;;
61487;SDS011;47351;53.326;-6.298;2022-10-16T00:32:31;3.00;;;1.30;;
61487;SDS011;47351;53.326;-6.298;2022-10-16T00:35:04;4.50;;;1.60;;
61487;SDS011;47351;53.326;-6.298;2022-10-16T00:37:36;3.90;;;1.40;;
61487;SDS011;47351;53.326;-6.298;2022-10-16T00:40:08;3.20;;;1.20;;
61487;SDS011;47351;53.326;-6.298;2022-10-16T00:42:41;7.10;;;1.60;;
61487;SDS011;47351;53.326;-6.298;2022-10-16T00:45:19;3.60;;;1.20;;
61487;SDS011;47351;53.326;-6.298;2022-10-16T00:47:51;5.60;;;1.40;;
61487;SDS011;47351;53.326;-6.298;2022-10-16T00:50:27;3.90;;;1.20;;
61487;SDS011;47351;53.326;-6.298;2022-10-16T00:53:01;6.40;;;1.50;;
61487;SDS011;47351;53.326;-6.298;2022-10-16T00:55:33;3.20;;;1.00;;
61487;SDS011;47351;53.326;-6.298;2022-10-16T00:58:09;7.50;;;1.30;;
61487;SDS011;47351;53.326;-6.298;2022-10-16T01:00:41;5.40;;;1.40;;
61487;SDS011;47351;53.326;-6.298;2022-10-16T01:09:12;5.00;;;1.10;;
61487;SDS011;47351;53.326;-6.298;2022-10-16T01:11:50;4.10;;;1.60;;
61487;SDS011;47351;53.326;-6.298;2022-10-16T01:14:34;5.70;;;1.00;;
61487;SDS011;47351;53.326;-6.298;2022-10-16T01:17:15;6.90;;;1.30;;
61487;SDS011;47351;53.326;-6.298;2022-10-16T01:19:57;3.20;;;1.00;;
61487;SDS011;47351;53.326;-6.298;2022-10-16T01:22:37;6.10;;;1.20;;
61487;SDS011;47351;53.326;-6.298;2022-10-16T01:25:17;4.40;;;1.10;;
61487;SDS011;47351;53.326;-6.298;2022-10-16T01:27:55;6.50;;;1.80;;
61487;SDS011;47351;53.326;-6.298;2022-10-16T01:30:29;5.30;;;1.20;;
61487;SDS011;47351;53.326;-6.298;2022-10-16T01:33:04;3.70;;;1.00;;
61487;SDS011;47351;53.326;-6.298;2022-10-16T01:35:40;3.10;;;0.90;;
61487;SDS011;47351;53.326;-6.298;2022-10-16T01:38:16;6.70;;;1.20;;
61487;SDS011;47351;53.326;-6.298;2022-10-16T01:40:51;4.60;;;1.30;;
61487;SDS011;47351;53.326;-6.298;2022-10-16T01:43:28;5.10;;;1.10;;
61487;SDS011;47351;53.326;-6.298;2022-10-16T01:46:05;5.00;;;0.90;;
61487;SDS011;47351;53.326;-6.298;2022-10-16T01:48:38;5.10;;;1.00;;
61487;SDS011;47351;53.326;-6.298;2022-10-16T01:51:11;5.80;;;1.10;;
61487;SDS011;47351;53.326;-6.298;2022-10-16T01:53:45;4.30;;;0.90;;
61487;SDS011;47351;53.326;-6.298;2022-10-16T01:56:27;7.50;;;1.20;;
61487;SDS011;47351;53.326;-6.298;2022-10-16T01:59:00;6.00;;;1.10;;
61487;SDS011;47351;53.326;-6.298;2022-10-16T02:01:35;3.70;;;1.10;;
61487;SDS011;47351;53.326;-6.298;2022-10-16T02:04:11;6.70;;;1.00;;
61487;SDS011;47351;53.326;-6.298;2022-10-16T02:06:46;4.70;;;1.40;;
61487;SDS011;47351;53.326;-6.298;2022-10-16T02:09:17;4.40;;;1.10;;
61487;SDS011;47351;53.326;-6.298;2022-10-16T02:11:49;3.80;;;1.10;;
61487;SDS011;47351;53.326;-6.298;2022-10-16T02:14:23;5.20;;;1.00;;
61487;SDS011;47351;53.326;-6.298;2022-10-16T02:16:55;1.90;;;0.80;;
61487;SDS011;47351;53.326;-6.298;2022-10-16T02:19:26;3.60;;;1.20;;
61487;SDS011;47351;53.326;-6.298;2022-10-16T02:22:00;2.20;;;1.10;;
61487;SDS011;47351;53.326;-6.298;2022-10-16T02:24:34;3.70;;;0.90;;
61487;SDS011;47351;53.326;-6.298;2022-10-16T02:27:22;2.20;;;0.80;;
61487;SDS011;47351;53.326;-6.298;2022-10-16T02:29:59;5.20;;;1.10;;
61487;SDS011;47351;53.326;-6.298;2022-10-16T02:32:38;4.00;;;1.00;;
61487;SDS011;47351;53.326;-6.298;2022-10-16T02:35:12;4.00;;;1.20;;
61487;SDS011;47351;53.326;-6.298;2022-10-16T02:37:46;6.30;;;1.20;;
61487;SDS011;47351;53.326;-6.298;2022-10-16T02:40:18;4.00;;;1.10;;
61487;SDS011;47351;53.326;-6.298;2022-10-16T02:42:52;5.00;;;1.20;;
61487;SDS011;47351;53.326;-6.298;2022-10-16T02:45:24;5.70;;;1.10;;
61487;SDS011;47351;53.326;-6.298;2022-10-16T02:47:56;4.60;;;1.20;;
61487;SDS011;47351;53.326;-6.298;2022-10-16T02:50:27;4.30;;;1.10;;
61487;SDS011;47351;53.326;-6.298;2022-10-16T02:52:58;5.40;;;1.00;;
61487;SDS011;47351;53.326;-6.298;2022-10-16T02:55:31;6.10;;;1.30;;
61487;SDS011;47351;53.326;-6.298;2022-10-16T02:58:10;8.20;;;1.10;;
61487;SDS011;47351;53.326;-6.298;2022-10-16T03:00:41;4.30;;;0.90;;
61487;SDS011;47351;53.326;-6.298;2022-10-16T03:03:13;3.00;;;0.90;;
61487;SDS011;47351;53.326;-6.298;2022-10-16T03:05:44;5.60;;;1.00;;
61487;SDS011;47351;53.326;-6.298;2022-10-16T03:08:16;3.10;;;0.80;;
61487;SDS011;47351;53.326;-6.298;2022-10-16T03:10:52;7.40;;;1.70;;
61487;SDS011;47351;53.326;-6.298;2022-10-16T03:13:31;5.10;;;0.80;;
61487;SDS011;47351;53.326;-6.298;2022-10-16T03:16:02;5.10;;;1.50;;
61487;SDS011;47351;53.326;-6.298;2022-10-16T03:18:34;2.70;;;0.70;;
61487;SDS011;47351;53.326;-6.298;2022-10-16T03:21:05;4.10;;;1.30;;
61487;SDS011;47351;53.326;-6.298;2022-10-16T03:23:37;3.50;;;0.80;;
61487;SDS011;47351;53.326;-6.298;2022-10-16T03:26:13;3.00;;;0.80;;
61487;SDS011;47351;53.326;-6.298;2022-10-16T03:28:44;4.40;;;0.90;;
61487;SDS011;47351;53.326;-6.298;2022-10-16T03:31:15;3.70;;;0.90;;
61487;SDS011;47351;53.326;-6.298;2022-10-16T03:33:47;4.30;;;1.10;;
61487;SDS011;47351;53.326;-6.298;2022-10-16T03:36:18;5.00;;;1.00;;
61487;SDS011;47351;53.326;-6.298;2022-10-16T03:38:50;2.80;;;1.20;;
61487;SDS011;47351;53.326;-6.298;2022-10-16T03:41:30;6.80;;;1.20;;
61487;SDS011;47351;53.326;-6.298;2022-10-16T03:44:01;4.70;;;1.00;;
61487;SDS011;47351;53.326;-6.298;2022-10-16T03:46:33;5.10;;;0.90;;
61487;SDS011;47351;53.326;-6.298;2022-10-16T03:49:04;3.20;;;0.90;;
61487;SDS011;47351;53.326;-6.298;2022-10-16T03:51:37;5.20;;;1.00;;
61487;SDS011;47351;53.326;-6.298;2022-10-16T03:54:09;5.30;;;1.00;;
61487;SDS011;47351;53.326;-6.298;2022-10-16T03:56:40;7.90;;;1.00;;
61487;SDS011;47351;53.326;-6.298;2022-10-16T03:59:11;2.90;;;0.90;;
61487;SDS011;47351;53.326;-6.298;2022-10-16T04:01:43;4.50;;;1.00;;
61487;SDS011;47351;53.326;-6.298;2022-10-16T04:04:14;2.10;;;0.70;;
61487;SDS011;47351;53.326;-6.298;2022-10-16T04:06:46;4.50;;;0.90;;
61487;SDS011;47351;53.326;-6.298;2022-10-16T04:09:17;6.70;;;1.10;;
61487;SDS011;47351;53.326;-6.298;2022-10-16T04:11:48;10.60;;;1.60;;
61487;SDS011;47351;53.326;-6.298;2022-10-16T04:14:28;3.90;;;1.00;;
61487;SDS011;47351;53.326;-6.298;2022-10-16T04:17:06;3.60;;;0.80;;
61487;SDS011;47351;53.326;-6.298;2022-10-16T04:19:44;2.70;;;0.60;;
61487;SDS011;47351;53.326;-6.298;2022-10-16T04:22:15;3.20;;;0.80;;
61487;SDS011;47351;53.326;-6.298;2022-10-16T04:24:54;6.60;;;1.00;;
61487;SDS011;47351;53.326;-6.298;2022-10-16T04:27:25;5.90;;;0.80;;
61487;SDS011;47351;53.326;-6.298;2022-10-16T04:29:59;4.10;;;0.70;;
61487;SDS011;47351;53.326;-6.298;2022-10-16T04:32:30;2.90;;;0.80;;
61487;SDS011;47351;53.326;-6.298;2022-10-16T04:35:02;4.10;;;1.30;;
61487;SDS011;47351;53.326;-6.298;2022-10-16T04:37:34;2.40;;;0.80;;
61487;SDS011;47351;53.326;-6.298;2022-10-16T04:40:06;6.10;;;0.90;;
61487;SDS011;47351;53.326;-6.298;2022-10-16T04:42:38;5.30;;;0.90;;
61487;SDS011;47351;53.326;-6.298;2022-10-16T04:45:10;2.50;;;0.80;;
61487;SDS011;47351;53.326;-6.298;2022-10-16T04:47:44;2.90;;;0.80;;
61487;SDS011;47351;53.326;-6.298;2022-10-16T04:50:15;2.20;;;0.80;;
61487;SDS011;47351;53.326;-6.298;2022-10-16T04:53:01;4.60;;;0.90;;
61487;SDS011;47351;53.326;-6.298;2022-10-16T04:55:32;4.60;;;0.70;;
61487;SDS011;47351;53.326;-6.298;2022-10-16T04:58:05;4.60;;;0.80;;
61487;SDS011;47351;53.326;-6.298;2022-10-16T05:00:37;5.80;;;0.80;;
61487;SDS011;47351;53.326;-6.298;2022-10-16T05:03:08;2.90;;;0.90;;
61487;SDS011;47351;53.326;-6.298;2022-10-16T05:05:43;3.90;;;0.80;;
61487;SDS011;47351;53.326;-6.298;2022-10-16T05:08:15;4.30;;;0.80;;
61487;SDS011;47351;53.326;-6.298;2022-10-16T05:14:02;2.90;;;0.70;;
61487;SDS011;47351;53.326;-6.298;2022-10-16T05:16:34;5.30;;;1.00;;
61487;SDS011;47351;53.326;-6.298;2022-10-16T05:19:05;5.30;;;0.70;;
61487;SDS011;47351;53.326;-6.298;2022-10-16T05:21:56;2.90;;;0.70;;
61487;SDS011;47351;53.326;-6.298;2022-10-16T05:24:28;3.60;;;0.80;;
61487;SDS011;47351;53.326;-6.298;2022-10-16T05:26:59;6.30;;;0.70;;
61487;SDS011;47351;53.326;-6.298;2022-10-16T05:29:30;4.20;;;0.80;;
61487;SDS011;47351;53.326;-6.298;2022-10-16T05:32:03;10.30;;;1.00;;
61487;SDS011;47351;53.326;-6.298;2022-10-16T05:34:34;3.80;;;0.90;;
61487;SDS011;47351;53.326;-6.298;2022-10-16T05:37:06;5.20;;;1.00;;
61487;SDS011;47351;53.326;-6.298;2022-10-16T05:39:37;5.50;;;0.90;;
61487;SDS011;47351;53.326;-6.298;2022-10-16T05:42:09;4.50;;;0.90;;
61487;SDS011;47351;53.326;-6.298;2022-10-16T05:44:40;4.50;;;0.80;;
61487;SDS011;47351;53.326;-6.298;2022-10-16T05:47:13;4.50;;;0.80;;
61487;SDS011;47351;53.326;-6.298;2022-10-16T05:49:45;5.40;;;0.90;;
61487;SDS011;47351;53.326;-6.298;2022-10-16T05:52:16;2.30;;;0.70;;
61487;SDS011;47351;53.326;-6.298;2022-10-16T05:54:48;5.20;;;1.30;;
61487;SDS011;47351;53.326;-6.298;2022-10-16T05:57:19;6.60;;;0.80;;
61487;SDS011;47351;53.326;-6.298;2022-10-16T05:59:50;6.50;;;1.40;;
61487;SDS011;47351;53.326;-6.298;2022-10-16T06:02:22;5.40;;;0.80;;
61487;SDS011;47351;53.326;-6.298;2022-10-16T06:05:00;9.20;;;1.10;;
61487;SDS011;47351;53.326;-6.298;2022-10-16T06:07:59;6.00;;;0.80;;
61487;SDS011;47351;53.326;-6.298;2022-10-16T06:10:30;7.40;;;1.10;;
61487;SDS011;47351;53.326;-6.298;2022-10-16T06:13:02;4.90;;;0.80;;
61487;SDS011;47351;53.326;-6.298;2022-10-16T06:15:33;5.50;;;1.30;;
61487;SDS011;47351;53.326;-6.298;2022-10-16T06:18:07;6.30;;;0.90;;
61487;SDS011;47351;53.326;-6.298;2022-10-16T06:20:38;6.60;;;1.10;;
61487;SDS011;47351;53.326;-6.298;2022-10-16T06:23:11;8.00;;;1.10;;
61487;SDS011;47351;53.326;-6.298;2022-10-16T06:25:44;8.20;;;1.00;;
61487;SDS011;47351;53.326;-6.298;2022-10-16T06:29:04;5.10;;;1.00;;
61487;SDS011;47351;53.326;-6.298;2022-10-16T06:31:36;7.40;;;1.00;;
61487;SDS011;47351;53.326;-6.298;2022-10-16T06:34:08;4.70;;;1.60;;
61487;SDS011;47351;53.326;-6.298;2022-10-16T06:36:40;4.70;;;0.80;;
61487;SDS011;47351;53.326;-6.298;2022-10-16T06:39:11;10.60;;;1.30;;
61487;SDS011;47351;53.326;-6.298;2022-10-16T06:41:43;7.20;;;1.10;;
61487;SDS011;47351;53.326;-6.298;2022-10-16T06:44:17;5.60;;;1.00;;
61487;SDS011;47351;53.326;-6.298;2022-10-16T06:46:48;8.70;;;1.20;;
61487;SDS011;47351;53.326;-6.298;2022-10-16T06:49:20;6.70;;;1.10;;
61487;SDS011;47351;53.326;-6.298;2022-10-16T06:51:51;6.30;;;1.00;;
61487;SDS011;47351;53.326;-6.298;2022-10-16T06:54:23;5.40;;;1.20;;
61487;SDS011;47351;53.326;-6.298;2022-10-16T06:56:54;6.00;;;1.00;;
61487;SDS011;47351;53.326;-6.298;2022-10-16T06:59:28;7.10;;;1.00;;
61487;SDS011;47351;53.326;-6.298;2022-10-16T07:01:59;8.00;;;0.90;;
61487;SDS011;47351;53.326;-6.298;2022-10-16T07:04:30;5.70;;;1.20;;
61487;SDS011;47351;53.326;-6.298;2022-10-16T07:07:02;8.90;;;1.50;;
61487;SDS011;47351;53.326;-6.298;2022-10-16T07:09:36;7.70;;;1.00;;
61487;SDS011;47351;53.326;-6.298;2022-10-16T07:12:07;7.80;;;1.20;;
61487;SDS011;47351;53.326;-6.298;2022-10-16T07:14:39;6.40;;;1.00;;
61487;SDS011;47351;53.326;-6.298;2022-10-16T07:17:10;8.40;;;1.20;;
61487;SDS011;47351;53.326;-6.298;2022-10-16T07:19:42;5.60;;;1.20;;
61487;SDS011;47351;53.326;-6.298;2022-10-16T07:22:14;4.60;;;1.00;;
61487;SDS011;47351;53.326;-6.298;2022-10-16T07:24:45;6.80;;;1.40;;
61487;SDS011;47351;53.326;-6.298;2022-10-16T07:27:19;11.10;;;2.40;;
61487;SDS011;47351;53.326;-6.298;2022-10-16T07:29:52;7.10;;;2.00;;
61487;SDS011;47351;53.326;-6.298;2022-10-16T07:32:23;8.00;;;1.00;;
61487;SDS011;47351;53.326;-6.298;2022-10-16T07:34:55;7.30;;;1.70;;
61487;SDS011;47351;53.326;-6.298;2022-10-16T07:37:27;7.60;;;1.00;;
61487;SDS011;47351;53.326;-6.298;2022-10-16T07:39:59;10.10;;;2.00;;
61487;SDS011;47351;53.326;-6.298;2022-10-16T07:42:30;8.20;;;1.60;;
61487;SDS011;47351;53.326;-6.298;2022-10-16T07:45:01;6.50;;;1.50;;
61487;SDS011;47351;53.326;-6.298;2022-10-16T07:47:33;5.80;;;1.60;;
61487;SDS011;47351;53.326;-6.298;2022-10-16T07:50:05;7.80;;;1.90;;
61487;SDS011;47351;53.326;-6.298;2022-10-16T07:52:37;6.30;;;1.90;;
61487;SDS011;47351;53.326;-6.298;2022-10-16T07:55:09;7.90;;;1.70;;
61487;SDS011;47351;53.326;-6.298;2022-10-16T07:57:40;7.40;;;2.60;;
61487;SDS011;47351;53.326;-6.298;2022-10-16T08:00:13;8.70;;;3.20;;
61487;SDS011;47351;53.326;-6.298;2022-10-16T08:02:46;7.70;;;1.60;;
61487;SDS011;47351;53.326;-6.298;2022-10-16T08:05:18;6.40;;;1.80;;
61487;SDS011;47351;53.326;-6.298;2022-10-16T08:07:49;9.40;;;1.70;;
61487;SDS011;47351;53.326;-6.298;2022-10-16T08:10:21;7.70;;;1.80;;
61487;SDS011;47351;53.326;-6.298;2022-10-16T08:12:56;8.10;;;1.70;;
61487;SDS011;47351;53.326;-6.298;2022-10-16T08:15:28;8.50;;;2.20;;
61487;SDS011;47351;53.326;-6.298;2022-10-16T08:18:00;7.50;;;2.40;;
61487;SDS011;47351;53.326;-6.298;2022-10-16T08:20:33;7.30;;;1.60;;
61487;SDS011;47351;53.326;-6.298;2022-10-16T08:23:05;4.10;;;0.90;;
61487;SDS011;47351;53.326;-6.298;2022-10-16T08:25:39;6.70;;;1.10;;
61487;SDS011;47351;53.326;-6.298;2022-10-16T08:28:11;10.40;;;2.10;;
61487;SDS011;47351;53.326;-6.298;2022-10-16T08:30:43;6.00;;;1.40;;
61487;SDS011;47351;53.326;-6.298;2022-10-16T08:33:17;6.30;;;1.40;;
61487;SDS011;47351;53.326;-6.298;2022-10-16T08:35:52;6.50;;;1.50;;
61487;SDS011;47351;53.326;-6.298;2022-10-16T08:38:26;4.50;;;1.00;;
61487;SDS011;47351;53.326;-6.298;2022-10-16T08:41:07;9.60;;;1.20;;
61487;SDS011;47351;53.326;-6.298;2022-10-16T08:43:55;4.70;;;1.10;;
61487;SDS011;47351;53.326;-6.298;2022-10-16T08:46:53;7.30;;;1.60;;
61487;SDS011;47351;53.326;-6.298;2022-10-16T08:49:30;7.00;;;1.50;;
61487;SDS011;47351;53.326;-6.298;2022-10-16T08:52:02;5.50;;;1.20;;
61487;SDS011;47351;53.326;-6.298;2022-10-16T08:54:41;5.10;;;1.50;;
61487;SDS011;47351;53.326;-6.298;2022-10-16T08:57:23;8.10;;;1.40;;
61487;SDS011;47351;53.326;-6.298;2022-10-16T09:00:08;5.70;;;1.50;;
61487;SDS011;47351;53.326;-6.298;2022-10-16T09:02:48;9.80;;;1.50;;
61487;SDS011;47351;53.326;-6.298;2022-10-16T09:05:43;8.90;;;1.60;;
61487;SDS011;47351;53.326;-6.298;2022-10-16T09:08:40;7.90;;;2.10;;
61487;SDS011;47351;53.326;-6.298;2022-10-16T09:11:23;8.10;;;1.50;;
61487;SDS011;47351;53.326;-6.298;2022-10-16T09:14:07;5.60;;;1.60;;
61487;SDS011;47351;53.326;-6.298;2022-10-16T09:16:51;6.40;;;1.20;;
61487;SDS011;47351;53.326;-6.298;2022-10-16T09:19:31;6.20;;;1.30;;
61487;SDS011;47351;53.326;-6.298;2022-10-16T09:22:10;5.40;;;1.30;;
61487;SDS011;47351;53.326;-6.298;2022-10-16T09:24:44;6.10;;;1.30;;
61487;SDS011;47351;53.326;-6.298;2022-10-16T09:27:15;6.10;;;1.50;;
61487;SDS011;47351;53.326;-6.298;2022-10-16T09:29:47;8.00;;;1.60;;
61487;SDS011;47351;53.326;-6.298;2022-10-16T09:32:26;7.40;;;1.80;;
61487;SDS011;47351;53.326;-6.298;2022-10-16T09:35:09;8.70;;;1.50;;
61487;SDS011;47351;53.326;-6.298;2022-10-16T09:37:50;5.40;;;1.70;;
61487;SDS011;47351;53.326;-6.298;2022-10-16T09:40:28;7.60;;;1.90;;
61487;SDS011;47351;53.326;-6.298;2022-10-16T09:43:16;10.20;;;2.20;;
61487;SDS011;47351;53.326;-6.298;2022-10-16T09:45:58;8.40;;;2.50;;
61487;SDS011;47351;53.326;-6.298;2022-10-16T09:48:33;9.00;;;2.40;;
61487;SDS011;47351;53.326;-6.298;2022-10-16T09:53:48;10.40;;;2.00;;
61487;SDS011;47351;53.326;-6.298;2022-10-16T09:56:24;7.00;;;1.80;;
61487;SDS011;47351;53.326;-6.298;2022-10-16T09:59:08;7.50;;;2.10;;
61487;SDS011;47351;53.326;-6.298;2022-10-16T10:01:43;5.90;;;1.40;;
61487;SDS011;47351;53.326;-6.298;2022-10-16T10:04:16;6.20;;;1.60;;
61487;SDS011;47351;53.326;-6.298;2022-10-16T10:06:52;9.50;;;1.80;;
61487;SDS011;47351;53.326;-6.298;2022-10-16T10:09:26;9.40;;;1.70;;
61487;SDS011;47351;53.326;-6.298;2022-10-16T10:11:59;6.30;;;1.80;;
61487;SDS011;47351;53.326;-6.298;2022-10-16T10:14:34;6.80;;;1.70;;
61487;SDS011;47351;53.326;-6.298;2022-10-16T10:17:12;8.10;;;1.60;;
61487;SDS011;47351;53.326;-6.298;2022-10-16T10:19:55;9.00;;;1.60;;
61487;SDS011;47351;53.326;-6.298;2022-10-16T10:22:38;7.80;;;1.80;;
61487;SDS011;47351;53.326;-6.298;2022-10-16T10:25:18;12.90;;;1.60;;
61487;SDS011;47351;53.326;-6.298;2022-10-16T10:28:02;5.90;;;1.60;;
61487;SDS011;47351;53.326;-6.298;2022-10-16T10:30:46;8.50;;;1.70;;
61487;SDS011;47351;53.326;-6.298;2022-10-16T10:33:27;10.40;;;2.30;;
61487;SDS011;47351;53.326;-6.298;2022-10-16T10:36:12;7.50;;;1.50;;
61487;SDS011;47351;53.326;-6.298;2022-10-16T10:38:56;6.10;;;1.60;;
61487;SDS011;47351;53.326;-6.298;2022-10-16T10:41:43;6.10;;;1.40;;
61487;SDS011;47351;53.326;-6.298;2022-10-16T10:44:42;7.00;;;1.40;;
61487;SDS011;47351;53.326;-6.298;2022-10-16T10:47:27;8.30;;;1.40;;
61487;SDS011;47351;53.326;-6.298;2022-10-16T10:50:12;7.10;;;1.50;;
61487;SDS011;47351;53.326;-6.298;2022-10-16T10:52:53;9.10;;;1.30;;
61487;SDS011;47351;53.326;-6.298;2022-10-16T10:55:36;8.30;;;1.30;;
61487;SDS011;47351;53.326;-6.298;2022-10-16T10:58:19;6.00;;;1.10;;
61487;SDS011;47351;53.326;-6.298;2022-10-16T11:01:10;8.60;;;1.60;;
61487;SDS011;47351;53.326;-6.298;2022-10-16T11:06:54;6.80;;;1.20;;
61487;SDS011;47351;53.326;-6.298;2022-10-16T11:09:30;5.40;;;1.20;;
61487;SDS011;47351;53.326;-6.298;2022-10-16T11:12:07;11.70;;;1.70;;
61487;SDS011;47351;53.326;-6.298;2022-10-16T11:14:46;7.00;;;1.30;;
61487;SDS011;47351;53.326;-6.298;2022-10-16T11:17:27;5.60;;;1.20;;
61487;SDS011;47351;53.326;-6.298;2022-10-16T11:20:01;6.30;;;1.20;;
61487;SDS011;47351;53.326;-6.298;2022-10-16T11:22:43;7.20;;;1.20;;
61487;SDS011;47351;53.326;-6.298;2022-10-16T11:25:20;10.50;;;2.20;;
61487;SDS011;47351;53.326;-6.298;2022-10-16T11:27:55;9.90;;;1.50;;
61487;SDS011;47351;53.326;-6.298;2022-10-16T11:30:33;6.60;;;1.30;;
61487;SDS011;47351;53.326;-6.298;2022-10-16T11:33:17;4.80;;;1.20;;
61487;SDS011;47351;53.326;-6.298;2022-10-16T11:36:02;6.80;;;1.20;;
61487;SDS011;47351;53.326;-6.298;2022-10-16T11:38:41;7.00;;;1.30;;
61487;SDS011;47351;53.326;-6.298;2022-10-16T11:41:22;5.40;;;1.30;;
61487;SDS011;47351;53.326;-6.298;2022-10-16T11:44:00;8.10;;;1.50;;
61487;SDS011;47351;53.326;-6.298;2022-10-16T11:46:45;7.70;;;1.20;;
61487;SDS011;47351;53.326;-6.298;2022-10-16T11:49:45;6.90;;;1.30;;
61487;SDS011;47351;53.326;-6.298;2022-10-16T11:52:20;5.60;;;1.40;;
61487;SDS011;47351;53.326;-6.298;2022-10-16T11:55:01;9.30;;;1.30;;
61487;SDS011;47351;53.326;-6.298;2022-10-16T11:57:44;6.60;;;1.50;;
61487;SDS011;47351;53.326;-6.298;2022-10-16T12:00:21;6.40;;;1.40;;
61487;SDS011;47351;53.326;-6.298;2022-10-16T12:02:58;6.40;;;1.20;;
61487;SDS011;47351;53.326;-6.298;2022-10-16T12:05:52;5.00;;;1.20;;
61487;SDS011;47351;53.326;-6.298;2022-10-16T12:08:34;7.80;;;1.50;;
61487;SDS011;47351;53.326;-6.298;2022-10-16T12:11:19;8.30;;;1.70;;
61487;SDS011;47351;53.326;-6.298;2022-10-16T12:14:05;5.20;;;1.80;;
61487;SDS011;47351;53.326;-6.298;2022-10-16T12:16:54;5.80;;;1.70;;
61487;SDS011;47351;53.326;-6.298;2022-10-16T12:22:00;9.30;;;1.60;;
61487;SDS011;47351;53.326;-6.298;2022-10-16T12:24:34;6.10;;;1.60;;
61487;SDS011;47351;53.326;-6.298;2022-10-16T12:27:23;6.80;;;2.00;;
61487;SDS011;47351;53.326;-6.298;2022-10-16T12:29:59;7.50;;;1.50;;
61487;SDS011;47351;53.326;-6.298;2022-10-16T12:32:34;6.20;;;1.20;;
61487;SDS011;47351;53.326;-6.298;2022-10-16T12:35:19;5.20;;;1.40;;
61487;SDS011;47351;53.326;-6.298;2022-10-16T12:37:53;6.30;;;1.40;;
61487;SDS011;47351;53.326;-6.298;2022-10-16T12:40:34;3.90;;;1.20;;
61487;SDS011;47351;53.326;-6.298;2022-10-16T12:43:23;11.80;;;2.80;;
61487;SDS011;47351;53.326;-6.298;2022-10-16T12:46:01;9.20;;;1.90;;
61487;SDS011;47351;53.326;-6.298;2022-10-16T12:48:34;7.00;;;1.50;;
61487;SDS011;47351;53.326;-6.298;2022-10-16T12:51:22;6.40;;;1.40;;
61487;SDS011;47351;53.326;-6.298;2022-10-16T12:54:02;8.50;;;1.80;;
61487;SDS011;47351;53.326;-6.298;2022-10-16T12:56:44;7.30;;;1.50;;
61487;SDS011;47351;53.326;-6.298;2022-10-16T12:59:30;8.00;;;2.50;;
61487;SDS011;47351;53.326;-6.298;2022-10-16T13:02:16;6.20;;;1.40;;
61487;SDS011;47351;53.326;-6.298;2022-10-16T13:05:23;8.40;;;1.90;;
61487;SDS011;47351;53.326;-6.298;2022-10-16T13:08:05;7.30;;;1.70;;
61487;SDS011;47351;53.326;-6.298;2022-10-16T13:10:55;5.80;;;1.30;;
61487;SDS011;47351;53.326;-6.298;2022-10-16T13:13:39;3.90;;;1.00;;
61487;SDS011;47351;53.326;-6.298;2022-10-16T13:16:25;9.00;;;1.30;;
61487;SDS011;47351;53.326;-6.298;2022-10-16T13:21:42;8.80;;;1.90;;
61487;SDS011;47351;53.326;-6.298;2022-10-16T13:24:25;4.30;;;1.40;;
61487;SDS011;47351;53.326;-6.298;2022-10-16T13:27:07;5.50;;;1.40;;
61487;SDS011;47351;53.326;-6.298;2022-10-16T13:29:53;7.20;;;1.30;;
61487;SDS011;47351;53.326;-6.298;2022-10-16T13:32:30;6.10;;;1.50;;
61487;SDS011;47351;53.326;-6.298;2022-10-16T13:35:02;5.90;;;1.20;;
61487;SDS011;47351;53.326;-6.298;2022-10-16T13:37:47;6.50;;;1.40;;
61487;SDS011;47351;53.326;-6.298;2022-10-16T13:40:19;5.30;;;1.50;;
61487;SDS011;47351;53.326;-6.298;2022-10-16T13:42:52;8.80;;;2.10;;
61487;SDS011;47351;53.326;-6.298;2022-10-16T13:45:24;11.50;;;1.90;;
61487;SDS011;47351;53.326;-6.298;2022-10-16T13:48:02;4.80;;;1.80;;
61487;SDS011;47351;53.326;-6.298;2022-10-16T13:50:35;7.80;;;2.40;;
61487;SDS011;47351;53.326;-6.298;2022-10-16T13:53:07;7.80;;;2.20;;
61487;SDS011;47351;53.326;-6.298;2022-10-16T13:55:43;10.40;;;2.40;;
61487;SDS011;47351;53.326;-6.298;2022-10-16T13:58:14;11.80;;;2.80;;
61487;SDS011;47351;53.326;-6.298;2022-10-16T14:00:54;18.90;;;6.30;;
61487;SDS011;47351;53.326;-6.298;2022-10-16T14:03:27;9.30;;;2.90;;
61487;SDS011;47351;53.326;-6.298;2022-10-16T14:06:00;11.80;;;3.40;;
61487;SDS011;47351;53.326;-6.298;2022-10-16T14:08:33;11.10;;;3.60;;
61487;SDS011;47351;53.326;-6.298;2022-10-16T14:11:05;8.10;;;3.20;;
61487;SDS011;47351;53.326;-6.298;2022-10-16T14:13:38;10.30;;;3.10;;
61487;SDS011;47351;53.326;-6.298;2022-10-16T14:16:17;6.80;;;2.80;;
61487;SDS011;47351;53.326;-6.298;2022-10-16T14:18:54;9.40;;;2.50;;
61487;SDS011;47351;53.326;-6.298;2022-10-16T14:21:28;7.30;;;2.40;;
61487;SDS011;47351;53.326;-6.298;2022-10-16T14:24:00;17.70;;;9.50;;
61487;SDS011;47351;53.326;-6.298;2022-10-16T14:26:43;8.00;;;2.70;;
61487;SDS011;47351;53.326;-6.298;2022-10-16T14:29:19;10.50;;;3.10;;
61487;SDS011;47351;53.326;-6.298;2022-10-16T14:31:58;8.00;;;2.80;;
61487;SDS011;47351;53.326;-6.298;2022-10-16T14:34:31;8.60;;;3.30;;
61487;SDS011;47351;53.326;-6.298;2022-10-16T14:37:08;9.30;;;3.80;;
61487;SDS011;47351;53.326;-6.298;2022-10-16T14:39:55;9.60;;;3.90;;
61487;SDS011;47351;53.326;-6.298;2022-10-16T14:42:26;7.90;;;3.20;;
61487;SDS011;47351;53.326;-6.298;2022-10-16T14:44:59;10.80;;;3.80;;
61487;SDS011;47351;53.326;-6.298;2022-10-16T14:47:30;9.30;;;3.20;;
61487;SDS011;47351;53.326;-6.298;2022-10-16T14:50:03;11.60;;;2.80;;
61487;SDS011;47351;53.326;-6.298;2022-10-16T14:52:37;8.80;;;3.00;;
61487;SDS011;47351;53.326;-6.298;2022-10-16T14:55:08;11.80;;;3.30;;
61487;SDS011;47351;53.326;-6.298;2022-10-16T14:57:59;10.60;;;4.80;;
61487;SDS011;47351;53.326;-6.298;2022-10-16T15:00:31;9.60;;;3.60;;
61487;SDS011;47351;53.326;-6.298;2022-10-16T15:03:02;11.00;;;3.60;;
61487;SDS011;47351;53.326;-6.298;2022-10-16T15:05:34;14.10;;;4.40;;
61487;SDS011;47351;53.326;-6.298;2022-10-16T15:08:05;11.60;;;3.60;;
61487;SDS011;47351;53.326;-6.298;2022-10-16T15:10:37;11.90;;;3.60;;
61487;SDS011;47351;53.326;-6.298;2022-10-16T15:13:12;10.80;;;3.40;;
61487;SDS011;47351;53.326;-6.298;2022-10-16T15:15:44;9.40;;;2.80;;
61487;SDS011;47351;53.326;-6.298;2022-10-16T15:18:17;11.30;;;3.10;;
61487;SDS011;47351;53.326;-6.298;2022-10-16T15:20:50;8.00;;;2.40;;
61487;SDS011;47351;53.326;-6.298;2022-10-16T15:23:22;12.90;;;2.40;;
61487;SDS011;47351;53.326;-6.298;2022-10-16T15:25:54;11.40;;;2.10;;
61487;SDS011;47351;53.326;-6.298;2022-10-16T15:28:25;11.60;;;2.30;;
61487;SDS011;47351;53.326;-6.298;2022-10-16T15:30:57;11.30;;;2.80;;
61487;SDS011;47351;53.326;-6.298;2022-10-16T15:33:29;10.50;;;2.70;;
61487;SDS011;47351;53.326;-6.298;2022-10-16T15:36:07;8.70;;;2.10;;
61487;SDS011;47351;53.326;-6.298;2022-10-16T15:38:38;9.30;;;2.50;;
61487;SDS011;47351;53.326;-6.298;2022-10-16T15:41:10;11.20;;;2.00;;
61487;SDS011;47351;53.326;-6.298;2022-10-16T15:43:41;11.60;;;2.20;;
61487;SDS011;47351;53.326;-6.298;2022-10-16T15:46:13;7.90;;;2.00;;